createdAt,value
2022-08-05T00:01:35.894Z,3.20
2022-08-05T00:04:16.480Z,2.93
2022-08-05T00:06:47.077Z,3.30
2022-08-05T00:09:19.750Z,2.93
2022-08-05T00:11:49.393Z,3.03
2022-08-05T00:14:27.798Z,3.53
2022-08-05T00:16:57.529Z,3.30
2022-08-05T00:19:32.796Z,3.40
2022-08-05T00:22:03.419Z,2.93
2022-08-05T00:24:32.386Z,3.13
2022-08-05T00:27:04.554Z,3.23
2022-08-05T00:29:38.499Z,3.40
2022-08-05T00:32:13.195Z,3.20
2022-08-05T00:35:03.761Z,3.63
2022-08-05T00:37:50.682Z,3.40
2022-08-05T00:40:26.862Z,3.33
2022-08-05T00:42:56.698Z,3.50
2022-08-05T00:45:38.905Z,3.40
2022-08-05T00:48:11.620Z,3.30
2022-08-05T00:50:42.001Z,3.20
2022-08-05T00:54:01.162Z,3.63
2022-08-05T00:56:01.731Z,3.70
2022-08-05T00:58:29.585Z,3.50
2022-08-05T01:00:57.762Z,3.47
2022-08-05T01:03:33.305Z,3.97
2022-08-05T01:06:03.875Z,3.17
2022-08-05T01:08:42.758Z,3.90
2022-08-05T01:11:21.917Z,4.77
2022-08-05T01:14:01.196Z,4.50
2022-08-05T01:16:38.951Z,4.63
2022-08-05T01:19:15.997Z,3.80
2022-08-05T01:22:07.566Z,4.00
2022-08-05T01:25:04.588Z,4.30
2022-08-05T01:28:10.443Z,3.40
2022-08-05T01:30:53.577Z,3.90
2022-08-05T01:33:26.813Z,4.47
2022-08-05T01:35:57.806Z,3.90
2022-08-05T01:38:29.966Z,4.20
2022-08-05T01:41:01.518Z,3.67
2022-08-05T01:43:33.566Z,3.83
2022-08-05T01:46:07.572Z,3.77
2022-08-05T01:48:52.620Z,3.80
2022-08-05T01:51:21.929Z,3.30
2022-08-05T01:53:57.252Z,4.13
2022-08-05T01:58:12.358Z,4.10
2022-08-05T01:59:23.174Z,3.40
2022-08-05T02:01:54.810Z,3.60
2022-08-05T02:04:24.894Z,3.83
2022-08-05T02:06:54.009Z,4.30
2022-08-05T02:09:22.275Z,3.50
2022-08-05T02:11:59.998Z,3.53
2022-08-05T02:14:34.462Z,3.90
2022-08-05T02:17:08.810Z,3.33
2022-08-05T02:19:50.761Z,3.57
2022-08-05T02:22:25.538Z,3.33
2022-08-05T02:25:02.790Z,4.07
2022-08-05T02:27:58.649Z,3.37
2022-08-05T02:30:24.710Z,3.20
2022-08-05T02:32:57.614Z,3.63
2022-08-05T02:35:28.138Z,4.20
2022-08-05T02:38:02.151Z,2.77
2022-08-05T02:40:32.007Z,4.03
2022-08-05T02:43:02.280Z,3.63
2022-08-05T02:45:52.471Z,3.50
2022-08-05T02:48:29.022Z,4.30
2022-08-05T02:51:00.703Z,4.17
2022-08-05T02:53:39.034Z,4.13
2022-08-05T02:56:09.317Z,3.70
2022-08-05T02:58:38.359Z,4.07
2022-08-05T03:01:19.354Z,3.57
2022-08-05T03:04:02.733Z,3.30
2022-08-05T03:06:55.096Z,3.33
2022-08-05T03:09:36.104Z,3.63
2022-08-05T03:12:08.370Z,3.53
2022-08-05T03:14:45.732Z,2.70
2022-08-05T03:17:15.668Z,3.17
2022-08-05T03:19:45.575Z,3.63
2022-08-05T03:22:15.952Z,3.17
2022-08-05T03:24:47.298Z,3.77
2022-08-05T03:27:19.443Z,3.60
2022-08-05T03:30:08.264Z,3.37
2022-08-05T03:32:37.460Z,3.80
2022-08-05T03:35:06.297Z,3.80
2022-08-05T03:37:46.272Z,3.60
2022-08-05T03:40:24.214Z,3.70
2022-08-05T03:42:53.079Z,3.57
2022-08-05T03:45:23.293Z,3.80
2022-08-05T03:47:57.155Z,4.10
2022-08-05T03:50:27.950Z,3.97
2022-08-05T03:55:34.462Z,3.37
2022-08-05T03:56:10.365Z,3.47
2022-08-05T03:58:43.681Z,3.50
2022-08-05T04:01:14.307Z,4.57
2022-08-05T04:04:09.146Z,3.40
2022-08-05T04:06:36.007Z,3.77
2022-08-05T04:09:06.337Z,3.63
2022-08-05T04:11:50.409Z,3.60
2022-08-05T04:14:30.147Z,4.17
2022-08-05T04:17:00.460Z,3.50
2022-08-05T04:19:31.154Z,3.70
2022-08-05T04:22:08.747Z,3.97
2022-08-05T04:24:43.801Z,3.70
2022-08-05T04:27:12.564Z,3.53
2022-08-05T04:29:40.610Z,3.70
2022-08-05T04:32:09.824Z,3.57
2022-08-05T04:34:42.881Z,3.60
2022-08-05T04:37:11.803Z,3.43
2022-08-05T04:39:40.950Z,3.60
2022-08-05T04:42:10.269Z,2.70
2022-08-05T04:44:39.800Z,3.23
2022-08-05T04:47:09.829Z,3.13
2022-08-05T04:50:01.645Z,3.77
2022-08-05T04:52:28.872Z,3.20
2022-08-05T04:54:57.915Z,3.50
2022-08-05T04:57:29.298Z,3.13
2022-08-05T05:00:05.890Z,2.40
2022-08-05T05:02:43.116Z,2.90
2022-08-05T05:05:26.541Z,2.93
2022-08-05T05:08:01.173Z,3.33
2022-08-05T05:10:30.639Z,2.70
2022-08-05T05:13:03.626Z,2.50
2022-08-05T05:16:01.757Z,3.00
2022-08-05T05:18:31.321Z,2.53
2022-08-05T05:21:05.560Z,2.53
2022-08-05T05:23:39.319Z,2.67
2022-08-05T05:26:28.759Z,2.97
2022-08-05T05:29:02.228Z,2.90
2022-08-05T05:34:02.460Z,3.00
2022-08-05T05:36:32.830Z,2.40
2022-08-05T05:39:05.452Z,2.63
2022-08-05T05:41:40.477Z,2.30
2022-08-05T05:44:36.870Z,2.53
2022-08-05T05:46:58.322Z,2.30
2022-08-05T05:49:30.351Z,2.83
2022-08-05T05:52:06.045Z,3.03
2022-08-05T05:54:50.182Z,2.40
2022-08-05T05:57:19.800Z,2.83
2022-08-05T05:59:48.760Z,2.30
2022-08-05T06:02:17.365Z,2.77
2022-08-05T06:05:03.446Z,2.27
2022-08-05T06:07:41.806Z,2.23
2022-08-05T06:10:11.599Z,1.90
2022-08-05T06:12:42.074Z,2.90
2022-08-05T06:15:16.197Z,2.70
2022-08-05T06:17:52.733Z,2.40
2022-08-05T06:20:21.973Z,2.07
2022-08-05T06:22:51.412Z,2.63
2022-08-05T06:25:25.180Z,2.33
2022-08-05T06:28:12.623Z,3.00
2022-08-05T06:30:49.524Z,3.00
2022-08-05T06:33:19.392Z,2.67
2022-08-05T06:36:05.782Z,3.90
2022-08-05T06:38:39.370Z,3.30
2022-08-05T06:41:14.934Z,2.23
2022-08-05T06:43:59.187Z,3.00
2022-08-05T06:46:29.878Z,2.20
2022-08-05T06:48:59.461Z,2.60
2022-08-05T06:51:29.937Z,2.70
2022-08-05T06:54:01.961Z,3.53
2022-08-05T06:56:34.549Z,2.30
2022-08-05T06:59:03.747Z,2.10
2022-08-05T07:01:37.129Z,2.10
2022-08-05T07:04:09.059Z,2.83
2022-08-05T07:06:37.071Z,2.40
2022-08-05T07:09:06.715Z,2.50
2022-08-05T07:11:37.215Z,3.13
2022-08-05T07:14:30.202Z,2.40
2022-08-05T07:18:08.590Z,2.30
2022-08-05T07:20:31.435Z,2.40
2022-08-05T07:22:39.806Z,2.43
2022-08-05T07:25:55.315Z,2.20
2022-08-05T07:28:04.109Z,2.47
2022-08-05T07:30:39.167Z,2.50
2022-08-05T07:33:10.601Z,2.40
2022-08-05T07:36:04.784Z,2.13
2022-08-05T07:38:42.745Z,2.20
2022-08-05T07:42:08.167Z,3.23
2022-08-05T07:44:14.410Z,2.23
2022-08-05T07:46:49.669Z,2.20
2022-08-05T07:49:18.636Z,2.43
2022-08-05T07:51:52.891Z,2.50
2022-08-05T07:54:31.536Z,2.23
2022-08-05T07:57:17.594Z,2.27
2022-08-05T07:59:52.255Z,2.93
2022-08-05T08:02:26.388Z,2.10
2022-08-05T08:04:58.762Z,2.30
2022-08-05T08:07:28.514Z,2.23
2022-08-05T08:09:56.852Z,2.23
2022-08-05T08:12:38.064Z,2.57
2022-08-05T08:15:15.935Z,2.87
2022-08-05T08:17:49.820Z,2.07
2022-08-05T08:20:59.981Z,2.43
2022-08-05T08:24:00.387Z,2.10
2022-08-05T08:26:00.768Z,2.20
2022-08-05T08:28:36.067Z,2.17
2022-08-05T08:31:05.594Z,2.80
2022-08-05T08:33:37.624Z,2.60
2022-08-05T08:36:38.332Z,2.57
2022-08-05T08:38:56.760Z,2.03
2022-08-05T08:41:50.583Z,2.57
2022-08-05T08:45:19.740Z,2.57
2022-08-05T08:47:47.061Z,2.70
2022-08-05T08:50:13.195Z,2.50
2022-08-05T08:52:52.882Z,2.33
2022-08-05T08:56:01.939Z,2.63
2022-08-05T08:58:13.180Z,2.30
2022-08-05T09:00:44.521Z,3.13
2022-08-05T09:03:16.301Z,3.30
2022-08-05T09:06:08.470Z,3.37
2022-08-05T09:08:37.241Z,2.90
2022-08-05T09:11:08.859Z,2.80
2022-08-05T09:14:10.167Z,2.87
2022-08-05T09:16:33.156Z,2.60
2022-08-05T09:19:02.001Z,2.87
2022-08-05T09:22:23.072Z,2.80
2022-08-05T09:24:24.313Z,2.50
2022-08-05T09:26:53.634Z,1.97
2022-08-05T09:29:21.445Z,2.00
2022-08-05T09:32:46.199Z,2.33
2022-08-05T09:34:58.929Z,2.20
2022-08-05T09:38:12.252Z,2.40
2022-08-05T09:40:34.227Z,2.20
2022-08-05T09:43:08.400Z,2.30
2022-08-05T09:46:06.465Z,2.57
2022-08-05T09:48:30.131Z,2.87
2022-08-05T09:50:59.447Z,1.80
2022-08-05T09:53:53.423Z,2.10
2022-08-05T09:56:25.893Z,2.23
2022-08-05T09:59:03.198Z,1.93
2022-08-05T10:01:34.421Z,2.60
2022-08-05T10:04:10.430Z,2.30
2022-08-05T10:06:40.445Z,1.90
2022-08-05T10:09:25.030Z,2.40
2022-08-05T10:11:56.731Z,2.13
2022-08-05T10:14:28.473Z,1.83
2022-08-05T10:17:37.297Z,2.33
2022-08-05T10:20:10.927Z,1.53
2022-08-05T10:22:42.875Z,2.10
2022-08-05T10:25:14.416Z,1.80
2022-08-05T10:28:09.698Z,1.73
2022-08-05T10:31:19.912Z,1.47
2022-08-05T10:33:19.649Z,1.83
2022-08-05T10:35:59.084Z,1.67
2022-08-05T10:38:33.213Z,1.50
2022-08-05T10:41:08.491Z,1.13
2022-08-05T10:43:49.964Z,1.67
2022-08-05T10:46:24.001Z,1.50
2022-08-05T10:49:01.506Z,1.43
2022-08-05T10:51:57.519Z,1.77
2022-08-05T10:54:56.144Z,1.50
2022-08-05T10:57:32.410Z,1.53
2022-08-05T11:00:19.741Z,1.23
2022-08-05T11:03:23.461Z,1.20
2022-08-05T11:06:16.094Z,1.00
2022-08-05T11:09:24.191Z,1.30
2022-08-05T11:12:00.646Z,1.17
2022-08-05T11:18:00.179Z,1.20
2022-08-05T11:20:45.609Z,1.43
2022-08-05T11:24:03.784Z,1.80
2022-08-05T11:26:29.086Z,1.90
2022-08-05T11:29:12.291Z,1.70
2022-08-05T11:31:57.291Z,1.70
2022-08-05T11:34:39.836Z,1.90
2022-08-05T11:38:28.889Z,1.50
2022-08-05T11:40:03.042Z,1.90
2022-08-05T11:42:38.127Z,1.97
2022-08-05T11:45:23.185Z,1.70
2022-08-05T11:47:59.068Z,1.53
2022-08-05T11:50:27.393Z,1.50
2022-08-05T11:52:58.261Z,1.77
2022-08-05T11:55:32.145Z,1.77
2022-08-05T11:58:10.223Z,1.57
2022-08-05T12:00:41.270Z,1.90
2022-08-05T12:03:29.610Z,1.80
2022-08-05T12:06:05.824Z,1.87
2022-08-05T12:08:35.064Z,1.77
2022-08-05T12:11:10.194Z,1.70
2022-08-05T12:13:58.771Z,1.50
2022-08-05T12:16:34.781Z,1.70
2022-08-05T12:19:08.776Z,1.90
2022-08-05T12:21:44.189Z,2.10
2022-08-05T12:24:17.387Z,1.87
2022-08-05T12:26:47.710Z,2.07
2022-08-05T12:29:22.835Z,1.97
2022-08-05T12:31:54.331Z,2.40
2022-08-05T12:34:26.647Z,2.23
2022-08-05T12:36:57.100Z,2.60
2022-08-05T12:39:28.188Z,3.33
2022-08-05T12:42:10.360Z,2.03
2022-08-05T12:44:45.981Z,2.10
2022-08-05T12:47:27.489Z,2.27
2022-08-05T12:50:02.459Z,2.57
2022-08-05T12:52:38.516Z,1.87
2022-08-05T12:55:22.637Z,2.10
2022-08-05T12:58:51.004Z,1.73
2022-08-05T13:02:03.861Z,1.63
2022-08-05T13:03:42.506Z,2.50
2022-08-05T13:06:16.989Z,2.30
2022-08-05T13:08:50.924Z,2.03
2022-08-05T13:11:25.504Z,1.83
2022-08-05T13:14:20.088Z,2.20
2022-08-05T13:16:56.468Z,1.90
2022-08-05T13:19:26.582Z,2.13
2022-08-05T13:21:56.692Z,1.80
2022-08-05T13:24:36.521Z,2.13
2022-08-05T13:27:17.175Z,2.40
2022-08-05T13:30:34.414Z,2.90
2022-08-05T13:32:51.577Z,2.27
2022-08-05T13:35:22.185Z,2.17
2022-08-05T13:38:05.002Z,1.50
2022-08-05T13:40:49.876Z,2.60
2022-08-05T13:43:22.020Z,1.60
2022-08-05T13:45:50.831Z,2.10
2022-08-05T13:48:58.581Z,2.13
2022-08-05T13:51:09.628Z,2.03
2022-08-05T13:53:48.118Z,2.00
2022-08-05T13:56:18.402Z,1.90
2022-08-05T13:58:52.999Z,2.33
2022-08-05T14:01:27.435Z,1.90
2022-08-05T14:04:28.538Z,2.27
2022-08-05T14:06:58.888Z,2.23
2022-08-05T14:09:46.346Z,1.63
2022-08-05T14:12:18.077Z,2.07
2022-08-05T14:15:00.652Z,2.17
2022-08-05T14:17:34.088Z,1.87
2022-08-05T14:20:04.115Z,1.77
2022-08-05T14:22:35.099Z,1.83
2022-08-05T14:25:06.198Z,2.20
2022-08-05T14:27:48.406Z,2.30
2022-08-05T14:30:20.249Z,2.17
2022-08-05T14:32:49.598Z,2.40
2022-08-05T14:35:22.857Z,2.20
2022-08-05T14:37:55.410Z,2.37
2022-08-05T14:40:24.354Z,1.87
2022-08-05T14:42:52.916Z,2.63
2022-08-05T14:45:21.357Z,1.60
2022-08-05T14:48:05.692Z,1.93
2022-08-05T14:50:40.689Z,1.50
2022-08-05T14:53:09.074Z,1.57
2022-08-05T14:55:39.672Z,1.60
2022-08-05T14:58:11.017Z,1.90
2022-08-05T15:00:59.717Z,2.07
2022-08-05T15:03:33.547Z,2.40
2022-08-05T15:06:15.547Z,2.27
2022-08-05T15:08:58.556Z,1.90
2022-08-05T15:11:51.539Z,2.00
2022-08-05T15:14:20.277Z,2.00
2022-08-05T15:17:03.700Z,1.93
2022-08-05T15:19:32.423Z,2.13
2022-08-05T15:22:02.204Z,1.80
2022-08-05T15:24:30.593Z,1.70
2022-08-05T15:26:58.962Z,1.70
2022-08-05T15:29:29.848Z,1.53
2022-08-05T15:32:02.233Z,1.80
2022-08-05T15:34:32.376Z,1.90
2022-08-05T15:37:06.815Z,1.70
2022-08-05T15:41:00.147Z,1.70
2022-08-05T15:42:54.786Z,1.70
2022-08-05T15:45:23.126Z,2.17
2022-08-05T15:48:07.125Z,2.00
2022-08-05T15:50:35.139Z,2.10
2022-08-05T15:53:05.607Z,2.00
2022-08-05T15:56:02.686Z,1.97
2022-08-05T15:58:23.287Z,1.73
2022-08-05T16:01:11.903Z,1.90
2022-08-05T16:03:41.000Z,2.30
2022-08-05T16:06:11.429Z,2.23
2022-08-05T16:08:41.105Z,1.73
2022-08-05T16:11:10.518Z,1.77
2022-08-05T16:13:38.917Z,2.20
2022-08-05T16:16:07.476Z,1.90
2022-08-05T16:18:52.314Z,2.30
2022-08-05T16:21:58.555Z,2.27
2022-08-05T16:24:39.423Z,2.17
2022-08-05T16:27:00.798Z,1.90
2022-08-05T16:29:31.105Z,1.90
2022-08-05T16:32:06.544Z,2.03
2022-08-05T16:34:41.701Z,1.90
2022-08-05T16:38:00.400Z,1.97
2022-08-05T16:40:06.103Z,3.00
2022-08-05T16:42:36.467Z,2.67
2022-08-05T16:46:06.893Z,2.50
2022-08-05T16:47:57.270Z,2.70
2022-08-05T16:50:27.890Z,2.87
2022-08-05T16:52:56.577Z,2.67
2022-08-05T16:55:25.986Z,2.57
2022-08-05T16:58:01.412Z,2.10
2022-08-05T17:00:34.865Z,2.27
2022-08-05T17:03:03.652Z,2.17
2022-08-05T17:05:33.061Z,2.67
2022-08-05T17:08:06.051Z,2.50
2022-08-05T17:10:37.405Z,2.40
2022-08-05T17:13:05.678Z,2.60
2022-08-05T17:15:48.884Z,2.63
2022-08-05T17:18:21.043Z,2.07
2022-08-05T17:20:49.002Z,1.93
2022-08-05T17:24:03.479Z,2.00
2022-08-05T17:26:07.179Z,2.00
2022-08-05T17:28:36.745Z,1.97
2022-08-05T17:31:08.140Z,2.30
2022-08-05T17:33:39.110Z,2.53
2022-08-05T17:36:33.828Z,2.67
2022-08-05T17:39:03.659Z,3.07
2022-08-05T17:42:18.209Z,2.80
2022-08-05T17:44:26.731Z,3.00
2022-08-05T17:47:00.795Z,4.80
2022-08-05T17:49:28.797Z,2.13
2022-08-05T17:52:16.843Z,2.63
2022-08-05T17:54:44.967Z,2.33
2022-08-05T17:57:14.733Z,2.60
2022-08-05T17:59:42.770Z,2.33
2022-08-05T18:02:11.133Z,2.10
2022-08-05T18:04:51.461Z,2.10
2022-08-05T18:07:21.746Z,2.70
2022-08-05T18:09:59.393Z,2.23
2022-08-05T18:12:31.945Z,2.30
2022-08-05T18:15:02.104Z,3.30
2022-08-05T18:18:01.212Z,2.50
2022-08-05T18:20:18.258Z,3.20
2022-08-05T18:22:54.494Z,3.73
2022-08-05T18:25:23.150Z,3.43
2022-08-05T18:27:54.566Z,2.97
2022-08-05T18:30:22.599Z,3.87
2022-08-05T18:33:01.118Z,2.80
2022-08-05T18:36:00.610Z,2.83
2022-08-05T18:38:19.477Z,3.43
2022-08-05T18:41:55.475Z,3.20
2022-08-05T18:43:49.035Z,3.10
2022-08-05T18:46:20.141Z,2.80
2022-08-05T18:48:52.162Z,3.17
2022-08-05T18:52:05.204Z,2.70
2022-08-05T18:54:27.562Z,3.20
2022-08-05T18:56:58.084Z,3.40
2022-08-05T18:59:43.212Z,2.47
2022-08-05T19:02:36.591Z,2.77
2022-08-05T19:06:11.823Z,2.47
2022-08-05T19:07:58.202Z,3.30
2022-08-05T19:10:28.892Z,3.90
2022-08-05T19:12:57.744Z,2.90
2022-08-05T19:16:00.287Z,3.60
2022-08-05T19:18:21.880Z,2.20
2022-08-05T19:20:52.341Z,2.30
2022-08-05T19:24:03.339Z,2.60
2022-08-05T19:26:11.163Z,2.80
2022-08-05T19:28:42.261Z,3.03
2022-08-05T19:31:18.085Z,2.77
2022-08-05T19:33:56.942Z,2.83
2022-08-05T19:36:25.855Z,2.60
2022-08-05T19:38:55.136Z,2.30
2022-08-05T19:42:06.350Z,2.80
2022-08-05T19:44:18.449Z,2.73
2022-08-05T19:46:50.362Z,2.90
2022-08-05T19:49:18.563Z,2.30
2022-08-05T19:52:08.645Z,3.03
2022-08-05T19:54:36.914Z,3.07
2022-08-05T19:57:08.613Z,3.90
2022-08-05T20:00:01.761Z,4.00
2022-08-05T20:02:31.329Z,5.07
2022-08-05T20:05:00.059Z,4.03
2022-08-05T20:07:45.746Z,3.87
2022-08-05T20:10:14.467Z,3.37
2022-08-05T20:12:46.116Z,4.90
2022-08-05T20:15:48.058Z,4.83
2022-08-05T20:18:10.769Z,4.80
2022-08-05T20:20:55.089Z,4.60
2022-08-05T20:23:39.727Z,6.73
2022-08-05T20:26:16.378Z,9.40
2022-08-05T20:28:46.206Z,4.70
2022-08-05T20:31:16.723Z,4.23
2022-08-05T20:33:46.152Z,4.60
2022-08-05T20:36:17.859Z,3.63
2022-08-05T20:38:53.501Z,4.97
2022-08-05T20:41:27.162Z,4.67
2022-08-05T20:44:19.242Z,4.97
2022-08-05T20:46:58.922Z,4.27
2022-08-05T20:49:28.383Z,3.40
2022-08-05T20:51:57.902Z,3.53
2022-08-05T20:54:43.495Z,3.40
2022-08-05T20:57:21.432Z,3.53
2022-08-05T21:00:20.762Z,3.10
2022-08-05T21:02:56.110Z,3.30
2022-08-05T21:05:28.467Z,2.60
2022-08-05T21:08:06.239Z,2.83
2022-08-05T21:10:34.625Z,3.10
2022-08-05T21:13:10.278Z,3.53
2022-08-05T21:15:46.142Z,3.00
2022-08-05T21:18:19.326Z,3.53
2022-08-05T21:20:53.381Z,3.27
2022-08-05T21:23:23.868Z,3.43
2022-08-05T21:25:52.198Z,4.00
2022-08-05T21:28:30.649Z,3.57
2022-08-05T21:30:58.834Z,3.53
2022-08-05T21:33:26.787Z,3.87
2022-08-05T21:36:09.382Z,4.00
2022-08-05T21:38:40.480Z,3.83
2022-08-05T21:41:09.012Z,4.10
2022-08-05T21:43:41.776Z,3.63
2022-08-05T21:46:10.074Z,3.53
2022-08-05T21:48:39.890Z,4.07
2022-08-05T21:52:15.972Z,3.97
2022-08-05T21:53:59.657Z,2.80
2022-08-05T21:56:31.874Z,2.87
2022-08-05T21:59:01.412Z,2.80
2022-08-05T22:01:36.047Z,2.90
2022-08-05T22:04:04.327Z,3.67
2022-08-05T22:06:35.095Z,2.93
2022-08-05T22:09:14.636Z,3.20
2022-08-05T22:11:43.476Z,3.33
2022-08-05T22:14:34.720Z,3.30
2022-08-05T22:17:07.037Z,3.03
2022-08-05T22:20:00.832Z,3.53
2022-08-05T22:22:26.762Z,3.80
2022-08-05T22:25:20.968Z,2.87
2022-08-05T22:28:08.942Z,3.40
2022-08-05T22:30:55.306Z,3.53
2022-08-05T22:33:58.571Z,4.20
2022-08-05T22:36:14.755Z,3.30
2022-08-05T22:38:47.950Z,3.53
2022-08-05T22:42:04.316Z,4.00
2022-08-05T22:44:05.670Z,4.33
2022-08-05T22:46:33.990Z,4.10
2022-08-05T22:49:12.413Z,4.47
2022-08-05T22:52:05.388Z,4.10
2022-08-05T22:54:37.310Z,3.80
2022-08-05T22:57:07.040Z,4.40
2022-08-05T22:59:45.191Z,3.73
2022-08-05T23:02:29.690Z,3.70
2022-08-05T23:05:01.477Z,3.70
2022-08-05T23:07:32.836Z,4.13
2022-08-05T23:10:14.635Z,4.17
2022-08-05T23:12:43.067Z,4.27
2022-08-05T23:15:12.601Z,3.60
2022-08-05T23:18:01.314Z,3.70
2022-08-05T23:20:28.743Z,3.00
2022-08-05T23:22:58.618Z,4.17
2022-08-05T23:25:51.132Z,3.40
2022-08-05T23:28:17.229Z,2.93
2022-08-05T23:30:53.556Z,3.70
2022-08-05T23:33:26.404Z,2.90
2022-08-05T23:36:13.461Z,2.13
2022-08-05T23:38:43.046Z,2.50
2022-08-05T23:41:13.606Z,2.50
2022-08-05T23:44:05.805Z,2.30
2022-08-05T23:46:30.845Z,2.50
2022-08-05T23:49:00.371Z,1.90
2022-08-05T23:51:54.136Z,2.37
2022-08-05T23:54:25.090Z,2.10
2022-08-05T23:57:03.146Z,2.53
